Terminal Aerodrome Forecast
Issued by NWS

Current Version | Previous Version | Text Only | Print | Product List | Glossary On
Versions: 1 2 3 4 5 6 7 8 9 10 11 12 13 14 15 16 17 18 19 20 21 22 23 24 25 26 27 28 29 30 31
000
FTUS44 KHGX 280520
TAFSGR
TAF
KSGR 280520Z 2806/2906 VRB04KT P6SM FEW008 SCT100 OVC250
     FM280900 VRB03KT 5SM BR BKN008
     FM281500 15008KT P6SM BKN015
     FM281800 16011KT P6SM VCTS SCT035CB
     FM290200 14005KT P6SM SCT015=

USA.gov is the U.S. government's official web portal to all federal, state and local government web resources and services.